createdAt,value
2019-01-27T00:00:45.705Z,50.53
2019-01-27T00:05:52.995Z,53.90
2019-01-27T00:10:58.746Z,55.17
2019-01-27T00:16:06.605Z,52.60
2019-01-27T00:21:12.502Z,47.60
2019-01-27T00:26:18.209Z,48.03
2019-01-27T00:31:24.427Z,48.57
2019-01-27T00:36:30.511Z,54.03
2019-01-27T00:41:36.443Z,45.48
2019-01-27T00:46:42.518Z,48.77
2019-01-27T00:51:48.507Z,47.20
2019-01-27T00:56:55.316Z,48.83
2019-01-27T01:02:01.307Z,51.83
2019-01-27T01:07:07.606Z,51.77
2019-01-27T01:12:13.630Z,48.60
2019-01-27T01:17:19.334Z,48.97
2019-01-27T01:22:25.359Z,41.50
2019-01-27T01:27:31.256Z,38.73
2019-01-27T01:32:36.954Z,37.85
2019-01-27T01:37:43.029Z,43.77
2019-01-27T01:42:49.228Z,36.83
2019-01-27T01:47:55.273Z,41.63
2019-01-27T01:53:00.952Z,39.67
2019-01-27T01:58:06.778Z,40.20
2019-01-27T02:03:12.586Z,37.03
2019-01-27T02:08:18.280Z,36.80
2019-01-27T02:13:26.042Z,38.53
2019-01-27T02:18:32.039Z,38.90
2019-01-27T02:23:38.082Z,39.57
2019-01-27T02:28:43.885Z,36.27
2019-01-27T02:33:49.598Z,37.80
2019-01-27T02:38:55.615Z,42.60
2019-01-27T02:44:01.653Z,37.90
2019-01-27T02:49:07.684Z,40.43
2019-01-27T02:54:13.570Z,42.25
2019-01-27T02:59:19.329Z,44.83
2019-01-27T03:04:25.164Z,47.47
2019-01-27T03:09:31.422Z,45.17
2019-01-27T03:14:37.212Z,50.57
2019-01-27T03:19:42.906Z,48.83
2019-01-27T03:24:48.668Z,52.57
2019-01-27T03:29:54.357Z,47.57
2019-01-27T03:35:00.408Z,51.17
2019-01-27T03:40:14.570Z,50.78
2019-01-27T03:45:22.351Z,47.53
2019-01-27T03:50:28.467Z,47.10
2019-01-27T03:55:34.479Z,43.67
2019-01-27T04:00:40.391Z,48.10
2019-01-27T04:05:46.165Z,42.57
2019-01-27T04:10:51.986Z,41.60
2019-01-27T04:15:58.015Z,45.07
2019-01-27T04:21:03.943Z,44.93
2019-01-27T04:26:09.897Z,44.07
2019-01-27T04:31:15.950Z,42.70
2019-01-27T04:36:21.851Z,44.10
2019-01-27T04:41:27.955Z,44.93
2019-01-27T04:46:33.721Z,46.97
2019-01-27T04:51:39.590Z,50.10
2019-01-27T04:56:45.322Z,46.27
2019-01-27T05:01:50.998Z,47.13
2019-01-27T05:06:56.949Z,45.30
2019-01-27T05:12:02.707Z,51.15
2019-01-27T05:17:08.439Z,46.37
2019-01-27T05:22:14.121Z,45.27
2019-01-27T05:27:19.965Z,41.03
2019-01-27T05:32:25.821Z,43.57
2019-01-27T05:37:31.546Z,41.37
2019-01-27T05:42:37.400Z,40.40
2019-01-27T05:47:43.123Z,46.33
2019-01-27T05:52:49.156Z,38.87
2019-01-27T05:57:55.373Z,39.70
2019-01-27T06:03:01.608Z,37.07
2019-01-27T06:08:07.525Z,41.87
2019-01-27T06:13:13.250Z,44.80
2019-01-27T06:18:19.234Z,40.95
2019-01-27T06:23:25.092Z,41.50
2019-01-27T06:28:31.090Z,41.17
2019-01-27T06:33:38.588Z,58.30
2019-01-27T06:38:44.307Z,45.37
2019-01-27T06:43:50.203Z,45.53
2019-01-27T06:48:56.309Z,46.97
2019-01-27T06:54:02.150Z,51.27
2019-01-27T06:59:09.522Z,49.20
2019-01-27T07:04:19.742Z,51.07
2019-01-27T07:09:29.902Z,60.03
2019-01-27T07:14:53.231Z,49.43
2019-01-27T07:20:03.294Z,47.97
2019-01-27T07:25:27.089Z,53.23
2019-01-27T07:30:34.654Z,51.83
2019-01-27T07:35:42.054Z,46.47
2019-01-27T07:40:49.729Z,49.10
2019-01-27T07:45:57.458Z,47.63
2019-01-27T07:51:06.207Z,53.77
2019-01-27T07:56:13.876Z,55.50
2019-01-27T08:01:23.904Z,55.88
2019-01-27T08:06:32.287Z,53.23
2019-01-27T08:11:49.078Z,47.60
2019-01-27T08:17:05.489Z,50.07
2019-01-27T08:22:24.786Z,50.35
2019-01-27T08:27:37.998Z,47.93
2019-01-27T08:32:48.790Z,54.10
2019-01-27T08:38:02.341Z,61.77
2019-01-27T08:43:26.054Z,60.60
2019-01-27T08:48:31.953Z,55.23
2019-01-27T08:53:37.766Z,56.13
2019-01-27T08:58:43.836Z,46.93
2019-01-27T09:03:51.441Z,48.50
2019-01-27T09:09:10.997Z,56.13
2019-01-27T09:14:21.126Z,51.57
2019-01-27T09:19:37.484Z,51.07
2019-01-27T09:25:00.987Z,49.43
2019-01-27T09:30:11.629Z,46.27
2019-01-27T09:35:19.010Z,49.73
2019-01-27T09:40:35.403Z,42.63
2019-01-27T09:46:05.131Z,43.93
2019-01-27T09:51:04.235Z,44.47
2019-01-27T09:56:11.921Z,43.10
2019-01-27T10:01:19.577Z,43.13
2019-01-27T10:06:26.942Z,49.13
2019-01-27T10:11:37.145Z,68.07
2019-01-27T10:16:47.315Z,53.67
2019-01-27T10:21:57.587Z,42.53
2019-01-27T10:27:14.215Z,45.80
2019-01-27T10:32:30.860Z,50.10
2019-01-27T10:37:44.350Z,53.10
2019-01-27T10:43:00.853Z,47.80
2019-01-27T10:48:14.436Z,48.40
2019-01-27T10:53:25.566Z,48.83
2019-01-27T10:58:35.924Z,48.70
2019-01-27T11:03:43.448Z,53.70
2019-01-27T11:08:53.643Z,56.00
2019-01-27T11:14:00.972Z,50.80
2019-01-27T11:19:20.035Z,62.63
2019-01-27T11:24:27.412Z,56.90
2019-01-27T11:29:34.802Z,52.97
2019-01-27T11:34:42.196Z,58.23
2019-01-27T11:40:06.328Z,52.27
2019-01-27T11:45:26.157Z,54.37
2019-01-27T11:50:33.488Z,72.50
2019-01-27T11:55:39.278Z,60.77
2019-01-27T12:00:46.641Z,58.35
2019-01-27T12:05:52.387Z,56.63
2019-01-27T12:10:58.090Z,60.30
2019-01-27T12:16:04.936Z,58.03
2019-01-27T12:21:10.777Z,55.50
2019-01-27T12:26:16.522Z,65.93
2019-01-27T12:31:22.303Z,56.85
2019-01-27T12:36:28.285Z,59.27
2019-01-27T12:41:34.217Z,58.70
2019-01-27T12:46:40.199Z,64.50
2019-01-27T12:51:46.154Z,59.37
2019-01-27T12:56:52.338Z,53.53
2019-01-27T13:01:58.178Z,53.27
2019-01-27T13:07:04.926Z,55.27
2019-01-27T13:12:10.731Z,55.92
2019-01-27T13:17:16.453Z,66.80
2019-01-27T13:22:22.112Z,54.13
2019-01-27T13:27:28.148Z,54.30
2019-01-27T13:32:34.256Z,57.23
2019-01-27T13:37:40.547Z,58.70
2019-01-27T13:42:46.524Z,60.20
2019-01-27T13:47:52.302Z,75.47
2019-01-27T13:52:58.043Z,59.07
2019-01-27T13:58:04.244Z,53.63
2019-01-27T14:03:10.149Z,58.98
2019-01-27T14:08:16.199Z,65.50
2019-01-27T14:13:22.108Z,58.80
2019-01-27T14:18:28.056Z,61.90
2019-01-27T14:23:33.936Z,60.57
2019-01-27T14:28:39.620Z,72.10
2019-01-27T14:33:45.670Z,68.57
2019-01-27T14:38:51.634Z,66.13
2019-01-27T14:43:57.602Z,64.00
2019-01-27T14:49:03.279Z,71.23
2019-01-27T14:54:09.015Z,86.90
2019-01-27T14:59:14.911Z,75.20
2019-01-27T15:04:21.085Z,76.07
2019-01-27T15:09:27.000Z,74.07
2019-01-27T15:14:32.708Z,76.07
2019-01-27T15:19:38.438Z,72.37
2019-01-27T15:24:44.736Z,83.30
2019-01-27T15:29:50.580Z,82.50
2019-01-27T15:34:56.275Z,75.97
2019-01-27T15:40:01.999Z,108.80
2019-01-27T15:45:18.876Z,76.20
2019-01-27T15:50:31.850Z,72.53
2019-01-27T15:55:39.054Z,84.07
2019-01-27T16:00:45.255Z,79.13
2019-01-27T16:05:51.023Z,82.60
2019-01-27T16:10:56.779Z,84.83
2019-01-27T16:16:02.791Z,70.10
2019-01-27T16:21:08.751Z,73.57
2019-01-27T16:26:14.853Z,79.45
2019-01-27T16:31:22.483Z,78.00
2019-01-27T16:36:28.554Z,110.37
2019-01-27T16:41:34.428Z,83.97
2019-01-27T16:46:40.138Z,92.93
2019-01-27T16:51:49.065Z,83.77
2019-01-27T16:56:53.338Z,84.37
2019-01-27T17:01:59.251Z,77.07
2019-01-27T17:07:05.869Z,82.82
2019-01-27T17:12:11.836Z,81.72
2019-01-27T17:17:17.629Z,87.17
2019-01-27T17:22:23.566Z,81.75
2019-01-27T17:27:29.935Z,86.77
2019-01-27T17:32:35.827Z,76.40
2019-01-27T17:37:41.647Z,80.67
2019-01-27T17:42:47.343Z,79.13
2019-01-27T17:47:53.245Z,77.87
2019-01-27T17:52:58.938Z,79.30
2019-01-27T17:58:07.725Z,87.05
2019-01-27T18:03:15.358Z,81.40
2019-01-27T18:08:22.749Z,88.30
2019-01-27T18:13:29.022Z,81.87
2019-01-27T18:18:34.827Z,76.40
2019-01-27T18:23:40.675Z,106.73
2019-01-27T18:28:46.455Z,99.27
2019-01-27T18:33:52.207Z,142.07
2019-01-27T18:38:57.935Z,96.77
2019-01-27T18:44:03.676Z,91.93
2019-01-27T18:49:09.456Z,78.17
2019-01-27T18:54:30.078Z,81.55
2019-01-27T18:59:43.477Z,88.93
2019-01-27T19:04:57.036Z,83.30
2019-01-27T19:10:10.007Z,82.37
2019-01-27T19:15:37.004Z,84.20
2019-01-27T19:20:50.334Z,85.87
2019-01-27T19:26:00.695Z,81.07
2019-01-27T19:31:08.321Z,81.70
2019-01-27T19:36:30.272Z,89.50
2019-01-27T19:42:04.348Z,85.33
2019-01-27T19:47:11.952Z,79.80
2019-01-27T19:52:24.809Z,79.00
2019-01-27T19:57:41.449Z,77.60
2019-01-27T20:02:51.709Z,78.17
2019-01-27T20:07:59.380Z,73.97
2019-01-27T20:13:18.348Z,71.53
2019-01-27T20:18:26.114Z,75.35
2019-01-27T20:23:51.326Z,72.27
2019-01-27T20:29:10.956Z,68.17
2019-01-27T20:34:24.300Z,71.13
2019-01-27T20:39:34.556Z,66.40
2019-01-27T20:44:41.888Z,62.73
2019-01-27T20:49:51.828Z,62.10
2019-01-27T20:54:59.524Z,72.33
2019-01-27T21:00:18.867Z,68.22
2019-01-27T21:05:32.287Z,58.50
2019-01-27T21:10:45.713Z,58.90
2019-01-27T21:15:53.285Z,60.93
2019-01-27T21:20:59.202Z,63.57
2019-01-27T21:26:06.042Z,64.17
2019-01-27T21:31:12.167Z,58.03
2019-01-27T21:36:18.096Z,61.27
2019-01-27T21:41:24.141Z,58.53
2019-01-27T21:46:30.035Z,56.18
2019-01-27T21:51:36.047Z,61.10
2019-01-27T21:56:42.279Z,61.80
2019-01-27T22:01:48.499Z,62.50
2019-01-27T22:06:54.440Z,57.47
2019-01-27T22:12:00.283Z,56.67
2019-01-27T22:17:06.436Z,55.70
2019-01-27T22:22:12.683Z,56.80
2019-01-27T22:27:18.572Z,61.37
2019-01-27T22:32:24.305Z,56.43
2019-01-27T22:37:30.056Z,54.53
2019-01-27T22:42:35.894Z,61.43
2019-01-27T22:47:41.584Z,56.77
2019-01-27T22:52:47.341Z,60.03
2019-01-27T22:57:53.204Z,63.90
2019-01-27T23:02:58.925Z,54.47
2019-01-27T23:08:06.473Z,60.83
2019-01-27T23:13:12.325Z,59.45
2019-01-27T23:18:18.325Z,53.80
2019-01-27T23:23:24.227Z,74.82
2019-01-27T23:28:30.143Z,56.20
2019-01-27T23:33:35.808Z,56.70
2019-01-27T23:38:41.684Z,55.50
2019-01-27T23:43:47.436Z,60.47
2019-01-27T23:48:53.482Z,55.97
2019-01-27T23:53:59.220Z,63.10
2019-01-27T23:59:05.811Z,78.07
